This is the latest recevied weather packets stored in our database for station/object 9W4GWK-G. If no packets are shown the sender has not sent any weather packets the latest 10 day(s).
| Time | Temp. | Humidity | Pressure | Rain* | Wind** | Luminosity | Snow |
|---|---|---|---|---|---|---|---|
| 1777225792 | 32.22° C | 61% | 1008.9 hPa | - | - | - | - |
| 1777224890 | 32.22° C | 59% | 1009 hPa | - | - | - | - |
| 1777223988 | 32.22° C | 59% | 1009.2 hPa | - | - | - | - |
| 1777223086 | 32.22° C | 58% | 1009.3 hPa | - | - | - | - |
| 1777222184 | 32.22° C | 60% | 1009.5 hPa | - | - | - | - |
| 1777221282 | 31.67° C | 58% | 1009.5 hPa | - | - | - | - |
| 1777220380 | 31.67° C | 58% | 1009.8 hPa | - | - | - | - |
| 1777219478 | 31.11° C | 56% | 1009.8 hPa | - | - | - | - |
| 1777218576 | 31.11° C | 55% | 1009.8 hPa | - | - | - | - |
| 1777217674 | 31.11° C | 55% | 1010 hPa | - | - | - | - |
| 1777216772 | 30.56° C | 54% | 1009.9 hPa | - | - | - | - |
| 1777215870 | 29.44° C | 49% | 1009.8 hPa | - | - | - | - |
| 1777214968 | 28.89° C | 44% | 1009.8 hPa | - | - | - | - |
| 1777214066 | 28.89° C | 40% | 1009.6 hPa | - | - | - | - |
| 1777213164 | 29.44° C | 40% | 1009.5 hPa | - | - | - | - |
| 1777212262 | 29.44° C | 41% | 1009.6 hPa | - | - | - | - |
| 1777211360 | 30° C | 42% | 1009.5 hPa | - | - | - | - |
| 1777210458 | 31.67° C | 50% | 1009.7 hPa | - | - | - | - |
| 1777209556 | 32.78° C | 60% | 1009.5 hPa | - | - | - | - |
| 1777208654 | 32.22° C | 60% | 1009.4 hPa | - | - | - | - |
| 1777207752 | 32.22° C | 60% | 1009.1 hPa | - | - | - | - |
| 1777206850 | 32.22° C | 61% | 1008.9 hPa | - | - | - | - |
| 1777205947 | 31.67° C | 59% | 1008.7 hPa | - | - | - | - |
| 1777205046 | 31.67° C | 60% | 1008.4 hPa | - | - | - | - |
| 1777204144 | 31.11° C | 58% | 1008.3 hPa | - | - | - | - |
* Rain since midnight (hover to see other rain measurements)
** Current wind speed in m/s (hover to see current wind gust speed)